sensor_id;sensor_type;location;lat;lon;timestamp;P1;durP1;ratioP1;P2;durP2;ratioP2
75593;SDS011;64176;49.156;7.810;2024-03-07T00:00:50;17.40;;;9.55;;
75593;SDS011;64176;49.156;7.810;2024-03-07T00:06:25;17.55;;;9.23;;
75593;SDS011;64176;49.156;7.810;2024-03-07T00:11:55;14.73;;;7.70;;
75593;SDS011;64176;49.156;7.810;2024-03-07T00:14:40;14.35;;;8.50;;
75593;SDS011;64176;49.156;7.810;2024-03-07T00:17:24;15.35;;;8.57;;
75593;SDS011;64176;49.156;7.810;2024-03-07T00:20:08;21.35;;;9.48;;
75593;SDS011;64176;49.156;7.810;2024-03-07T00:22:53;89.15;;;18.92;;
75593;SDS011;64176;49.156;7.810;2024-03-07T00:25:37;63.15;;;12.60;;
75593;SDS011;64176;49.156;7.810;2024-03-07T00:28:21;89.60;;;16.77;;
75593;SDS011;64176;49.156;7.810;2024-03-07T00:31:08;26.35;;;11.27;;
75593;SDS011;64176;49.156;7.810;2024-03-07T00:33:54;42.42;;;12.27;;
75593;SDS011;64176;49.156;7.810;2024-03-07T00:36:40;75.60;;;18.88;;
75593;SDS011;64176;49.156;7.810;2024-03-07T00:39:24;43.83;;;14.05;;
75593;SDS011;64176;49.156;7.810;2024-03-07T00:42:09;35.45;;;9.70;;
75593;SDS011;64176;49.156;7.810;2024-03-07T00:44:54;76.50;;;17.80;;
75593;SDS011;64176;49.156;7.810;2024-03-07T00:47:38;36.38;;;14.68;;
75593;SDS011;64176;49.156;7.810;2024-03-07T00:50:22;70.88;;;16.00;;
75593;SDS011;64176;49.156;7.810;2024-03-07T00:53:09;38.72;;;11.95;;
75593;SDS011;64176;49.156;7.810;2024-03-07T00:55:54;53.90;;;11.63;;
75593;SDS011;64176;49.156;7.810;2024-03-07T00:58:40;43.95;;;11.55;;
75593;SDS011;64176;49.156;7.810;2024-03-07T01:01:24;67.13;;;18.13;;
75593;SDS011;64176;49.156;7.810;2024-03-07T01:04:11;60.08;;;12.98;;
75593;SDS011;64176;49.156;7.810;2024-03-07T01:06:59;124.25;;;23.45;;
75593;SDS011;64176;49.156;7.810;2024-03-07T01:09:47;56.42;;;12.98;;
75593;SDS011;64176;49.156;7.810;2024-03-07T01:12:32;154.90;;;26.45;;
75593;SDS011;64176;49.156;7.810;2024-03-07T01:15:18;79.55;;;13.43;;
75593;SDS011;64176;49.156;7.810;2024-03-07T01:18:01;63.83;;;11.63;;
75593;SDS011;64176;49.156;7.810;2024-03-07T01:20:46;57.95;;;14.38;;
75593;SDS011;64176;49.156;7.810;2024-03-07T01:23:30;74.82;;;14.70;;
75593;SDS011;64176;49.156;7.810;2024-03-07T01:26:15;32.17;;;11.55;;
75593;SDS011;64176;49.156;7.810;2024-03-07T01:29:00;27.85;;;9.43;;
75593;SDS011;64176;49.156;7.810;2024-03-07T01:31:46;55.58;;;11.23;;
75593;SDS011;64176;49.156;7.810;2024-03-07T01:34:30;25.25;;;9.40;;
75593;SDS011;64176;49.156;7.810;2024-03-07T01:37:14;14.73;;;7.38;;
75593;SDS011;64176;49.156;7.810;2024-03-07T01:39:58;19.02;;;7.93;;
75593;SDS011;64176;49.156;7.810;2024-03-07T01:42:42;15.43;;;8.15;;
75593;SDS011;64176;49.156;7.810;2024-03-07T01:45:25;15.45;;;7.35;;
75593;SDS011;64176;49.156;7.810;2024-03-07T01:48:09;14.55;;;7.43;;
75593;SDS011;64176;49.156;7.810;2024-03-07T01:50:55;17.58;;;7.47;;
75593;SDS011;64176;49.156;7.810;2024-03-07T01:53:40;15.63;;;7.47;;
75593;SDS011;64176;49.156;7.810;2024-03-07T01:56:23;11.90;;;6.70;;
75593;SDS011;64176;49.156;7.810;2024-03-07T01:59:08;17.17;;;8.65;;
75593;SDS011;64176;49.156;7.810;2024-03-07T02:01:53;17.45;;;8.20;;
75593;SDS011;64176;49.156;7.810;2024-03-07T02:04:37;12.07;;;6.80;;
75593;SDS011;64176;49.156;7.810;2024-03-07T02:07:24;12.35;;;6.32;;
75593;SDS011;64176;49.156;7.810;2024-03-07T02:10:08;11.30;;;6.68;;
75593;SDS011;64176;49.156;7.810;2024-03-07T02:12:53;9.10;;;7.55;;
75593;SDS011;64176;49.156;7.810;2024-03-07T02:15:37;11.45;;;7.38;;
75593;SDS011;64176;49.156;7.810;2024-03-07T02:18:21;11.57;;;5.88;;
75593;SDS011;64176;49.156;7.810;2024-03-07T02:21:10;11.20;;;7.00;;
75593;SDS011;64176;49.156;7.810;2024-03-07T02:26:41;12.23;;;6.40;;
75593;SDS011;64176;49.156;7.810;2024-03-07T02:29:26;12.80;;;7.55;;
75593;SDS011;64176;49.156;7.810;2024-03-07T02:32:10;15.10;;;8.05;;
75593;SDS011;64176;49.156;7.810;2024-03-07T02:34:55;12.40;;;7.82;;
75593;SDS011;64176;49.156;7.810;2024-03-07T02:37:39;17.75;;;8.93;;
75593;SDS011;64176;49.156;7.810;2024-03-07T02:40:23;13.93;;;8.52;;
75593;SDS011;64176;49.156;7.810;2024-03-07T02:43:07;14.80;;;8.98;;
75593;SDS011;64176;49.156;7.810;2024-03-07T02:45:51;15.38;;;8.13;;
75593;SDS011;64176;49.156;7.810;2024-03-07T02:48:35;18.23;;;8.88;;
75593;SDS011;64176;49.156;7.810;2024-03-07T02:51:19;16.98;;;8.65;;
75593;SDS011;64176;49.156;7.810;2024-03-07T02:54:06;17.83;;;8.80;;
75593;SDS011;64176;49.156;7.810;2024-03-07T02:56:50;20.83;;;10.73;;
75593;SDS011;64176;49.156;7.810;2024-03-07T02:59:37;25.48;;;11.82;;
75593;SDS011;64176;49.156;7.810;2024-03-07T03:02:20;24.75;;;12.73;;
75593;SDS011;64176;49.156;7.810;2024-03-07T03:05:05;23.23;;;13.50;;
75593;SDS011;64176;49.156;7.810;2024-03-07T03:10:38;24.88;;;11.02;;
75593;SDS011;64176;49.156;7.810;2024-03-07T03:13:23;30.10;;;15.65;;
75593;SDS011;64176;49.156;7.810;2024-03-07T03:16:08;30.85;;;14.85;;
75593;SDS011;64176;49.156;7.810;2024-03-07T03:18:53;34.85;;;15.73;;
75593;SDS011;64176;49.156;7.810;2024-03-07T03:21:38;36.15;;;16.80;;
75593;SDS011;64176;49.156;7.810;2024-03-07T03:24:21;29.98;;;14.27;;
75593;SDS011;64176;49.156;7.810;2024-03-07T03:27:09;28.77;;;14.45;;
75593;SDS011;64176;49.156;7.810;2024-03-07T03:29:53;33.45;;;15.32;;
75593;SDS011;64176;49.156;7.810;2024-03-07T03:32:37;36.38;;;16.90;;
75593;SDS011;64176;49.156;7.810;2024-03-07T03:35:21;33.90;;;15.75;;
75593;SDS011;64176;49.156;7.810;2024-03-07T03:38:05;27.65;;;12.00;;
75593;SDS011;64176;49.156;7.810;2024-03-07T03:40:50;20.80;;;10.45;;
75593;SDS011;64176;49.156;7.810;2024-03-07T03:43:36;21.58;;;12.15;;
75593;SDS011;64176;49.156;7.810;2024-03-07T03:46:20;27.20;;;13.27;;
75593;SDS011;64176;49.156;7.810;2024-03-07T03:49:06;25.02;;;12.60;;
75593;SDS011;64176;49.156;7.810;2024-03-07T03:51:53;27.38;;;14.18;;
75593;SDS011;64176;49.156;7.810;2024-03-07T03:54:38;29.52;;;14.35;;
75593;SDS011;64176;49.156;7.810;2024-03-07T03:57:22;37.40;;;15.90;;
75593;SDS011;64176;49.156;7.810;2024-03-07T04:00:06;29.10;;;14.80;;
75593;SDS011;64176;49.156;7.810;2024-03-07T04:02:56;35.00;;;18.02;;
75593;SDS011;64176;49.156;7.810;2024-03-07T04:05:40;32.42;;;16.10;;
75593;SDS011;64176;49.156;7.810;2024-03-07T04:08:24;32.67;;;15.57;;
75593;SDS011;64176;49.156;7.810;2024-03-07T04:11:08;34.78;;;17.33;;
75593;SDS011;64176;49.156;7.810;2024-03-07T04:13:53;34.28;;;18.08;;
75593;SDS011;64176;49.156;7.810;2024-03-07T04:16:37;38.15;;;18.08;;
75593;SDS011;64176;49.156;7.810;2024-03-07T04:19:22;36.25;;;20.10;;
75593;SDS011;64176;49.156;7.810;2024-03-07T04:22:07;36.72;;;16.88;;
75593;SDS011;64176;49.156;7.810;2024-03-07T04:24:54;35.03;;;18.00;;
75593;SDS011;64176;49.156;7.810;2024-03-07T04:27:39;35.85;;;18.35;;
75593;SDS011;64176;49.156;7.810;2024-03-07T04:30:25;38.67;;;19.95;;
75593;SDS011;64176;49.156;7.810;2024-03-07T04:33:09;39.03;;;20.25;;
75593;SDS011;64176;49.156;7.810;2024-03-07T04:35:53;34.92;;;17.52;;
75593;SDS011;64176;49.156;7.810;2024-03-07T04:38:37;37.28;;;18.95;;
75593;SDS011;64176;49.156;7.810;2024-03-07T04:41:22;37.63;;;19.42;;
75593;SDS011;64176;49.156;7.810;2024-03-07T04:44:08;42.15;;;18.90;;
75593;SDS011;64176;49.156;7.810;2024-03-07T04:46:52;48.78;;;23.95;;
75593;SDS011;64176;49.156;7.810;2024-03-07T04:49:40;43.03;;;22.00;;
75593;SDS011;64176;49.156;7.810;2024-03-07T04:52:27;37.88;;;22.75;;
75593;SDS011;64176;49.156;7.810;2024-03-07T04:55:15;38.40;;;19.65;;
75593;SDS011;64176;49.156;7.810;2024-03-07T04:57:59;42.25;;;20.83;;
75593;SDS011;64176;49.156;7.810;2024-03-07T05:00:43;47.85;;;25.35;;
75593;SDS011;64176;49.156;7.810;2024-03-07T05:03:30;43.47;;;21.23;;
75593;SDS011;64176;49.156;7.810;2024-03-07T05:06:13;42.55;;;22.15;;
75593;SDS011;64176;49.156;7.810;2024-03-07T05:09:03;49.28;;;25.17;;
75593;SDS011;64176;49.156;7.810;2024-03-07T05:11:49;44.80;;;23.15;;
75593;SDS011;64176;49.156;7.810;2024-03-07T05:14:36;45.25;;;23.52;;
75593;SDS011;64176;49.156;7.810;2024-03-07T05:17:20;37.78;;;22.15;;
75593;SDS011;64176;49.156;7.810;2024-03-07T05:20:06;43.47;;;22.30;;
75593;SDS011;64176;49.156;7.810;2024-03-07T05:22:53;46.30;;;21.60;;
75593;SDS011;64176;49.156;7.810;2024-03-07T05:25:40;51.92;;;23.17;;
75593;SDS011;64176;49.156;7.810;2024-03-07T05:28:24;43.25;;;22.23;;
75593;SDS011;64176;49.156;7.810;2024-03-07T05:31:08;43.67;;;21.42;;
75593;SDS011;64176;49.156;7.810;2024-03-07T05:33:56;48.03;;;23.75;;
75593;SDS011;64176;49.156;7.810;2024-03-07T05:36:40;48.70;;;25.27;;
75593;SDS011;64176;49.156;7.810;2024-03-07T05:39:29;46.92;;;23.85;;
75593;SDS011;64176;49.156;7.810;2024-03-07T05:42:16;48.92;;;22.98;;
75593;SDS011;64176;49.156;7.810;2024-03-07T05:45:00;50.67;;;27.45;;
75593;SDS011;64176;49.156;7.810;2024-03-07T05:47:44;60.90;;;32.35;;
75593;SDS011;64176;49.156;7.810;2024-03-07T05:50:28;51.85;;;26.58;;
75593;SDS011;64176;49.156;7.810;2024-03-07T05:53:12;49.42;;;23.02;;
75593;SDS011;64176;49.156;7.810;2024-03-07T05:55:56;49.72;;;25.42;;
75593;SDS011;64176;49.156;7.810;2024-03-07T05:58:40;49.78;;;24.20;;
75593;SDS011;64176;49.156;7.810;2024-03-07T06:01:24;41.08;;;22.52;;
75593;SDS011;64176;49.156;7.810;2024-03-07T06:04:11;44.35;;;22.27;;
75593;SDS011;64176;49.156;7.810;2024-03-07T06:06:54;41.55;;;21.48;;
75593;SDS011;64176;49.156;7.810;2024-03-07T06:09:38;40.72;;;22.67;;
75593;SDS011;64176;49.156;7.810;2024-03-07T06:12:22;36.38;;;20.85;;
75593;SDS011;64176;49.156;7.810;2024-03-07T06:17:53;37.88;;;19.17;;
75593;SDS011;64176;49.156;7.810;2024-03-07T06:20:43;36.75;;;19.98;;
75593;SDS011;64176;49.156;7.810;2024-03-07T06:23:27;39.10;;;18.08;;
75593;SDS011;64176;49.156;7.810;2024-03-07T06:26:13;39.75;;;19.80;;
75593;SDS011;64176;49.156;7.810;2024-03-07T06:29:00;78.97;;;41.53;;
75593;SDS011;64176;49.156;7.810;2024-03-07T06:31:47;81.05;;;42.15;;
75593;SDS011;64176;49.156;7.810;2024-03-07T06:34:31;59.88;;;30.08;;
75593;SDS011;64176;49.156;7.810;2024-03-07T06:37:16;50.10;;;25.67;;
75593;SDS011;64176;49.156;7.810;2024-03-07T06:40:05;41.22;;;23.27;;
75593;SDS011;64176;49.156;7.810;2024-03-07T06:42:53;31.95;;;18.10;;
75593;SDS011;64176;49.156;7.810;2024-03-07T06:45:37;34.60;;;17.65;;
75593;SDS011;64176;49.156;7.810;2024-03-07T06:48:22;32.08;;;18.83;;
75593;SDS011;64176;49.156;7.810;2024-03-07T06:51:08;40.85;;;23.88;;
75593;SDS011;64176;49.156;7.810;2024-03-07T06:53:52;43.60;;;24.17;;
75593;SDS011;64176;49.156;7.810;2024-03-07T06:56:36;34.33;;;20.85;;
75593;SDS011;64176;49.156;7.810;2024-03-07T06:59:20;31.48;;;18.50;;
75593;SDS011;64176;49.156;7.810;2024-03-07T07:02:06;36.22;;;18.08;;
75593;SDS011;64176;49.156;7.810;2024-03-07T07:04:52;36.90;;;19.23;;
75593;SDS011;64176;49.156;7.810;2024-03-07T07:07:38;29.00;;;17.85;;
75593;SDS011;64176;49.156;7.810;2024-03-07T07:10:22;24.23;;;13.55;;
75593;SDS011;64176;49.156;7.810;2024-03-07T07:13:08;24.60;;;14.50;;
75593;SDS011;64176;49.156;7.810;2024-03-07T07:15:54;30.27;;;14.45;;
75593;SDS011;64176;49.156;7.810;2024-03-07T07:18:38;25.80;;;13.60;;
75593;SDS011;64176;49.156;7.810;2024-03-07T07:21:22;26.33;;;15.40;;
75593;SDS011;64176;49.156;7.810;2024-03-07T07:24:06;25.45;;;15.27;;
75593;SDS011;64176;49.156;7.810;2024-03-07T07:26:50;23.30;;;12.65;;
75593;SDS011;64176;49.156;7.810;2024-03-07T07:29:34;22.95;;;12.52;;
75593;SDS011;64176;49.156;7.810;2024-03-07T07:32:18;22.90;;;13.48;;
75593;SDS011;64176;49.156;7.810;2024-03-07T07:35:03;21.85;;;12.27;;
75593;SDS011;64176;49.156;7.810;2024-03-07T07:37:50;22.67;;;11.48;;
75593;SDS011;64176;49.156;7.810;2024-03-07T07:40:37;20.15;;;13.70;;
75593;SDS011;64176;49.156;7.810;2024-03-07T07:43:24;21.77;;;13.63;;
75593;SDS011;64176;49.156;7.810;2024-03-07T07:46:08;18.52;;;10.18;;
75593;SDS011;64176;49.156;7.810;2024-03-07T07:48:55;17.83;;;10.82;;
75593;SDS011;64176;49.156;7.810;2024-03-07T07:51:39;17.45;;;11.15;;
75593;SDS011;64176;49.156;7.810;2024-03-07T07:54:24;16.83;;;10.82;;
75593;SDS011;64176;49.156;7.810;2024-03-07T07:57:08;18.35;;;10.52;;
75593;SDS011;64176;49.156;7.810;2024-03-07T07:59:52;17.88;;;11.05;;
75593;SDS011;64176;49.156;7.810;2024-03-07T08:02:39;18.10;;;11.10;;
75593;SDS011;64176;49.156;7.810;2024-03-07T08:05:28;16.63;;;11.25;;
75593;SDS011;64176;49.156;7.810;2024-03-07T08:08:16;15.45;;;10.13;;
75593;SDS011;64176;49.156;7.810;2024-03-07T08:11:04;18.13;;;11.00;;
75593;SDS011;64176;49.156;7.810;2024-03-07T08:13:48;17.60;;;10.82;;
75593;SDS011;64176;49.156;7.810;2024-03-07T08:16:34;18.42;;;10.60;;
75593;SDS011;64176;49.156;7.810;2024-03-07T08:19:18;16.38;;;10.90;;
75593;SDS011;64176;49.156;7.810;2024-03-07T08:22:02;17.33;;;9.70;;
75593;SDS011;64176;49.156;7.810;2024-03-07T08:24:46;16.80;;;10.45;;
75593;SDS011;64176;49.156;7.810;2024-03-07T08:27:30;15.50;;;11.07;;
75593;SDS011;64176;49.156;7.810;2024-03-07T08:30:14;18.13;;;11.05;;
75593;SDS011;64176;49.156;7.810;2024-03-07T08:32:59;17.10;;;10.25;;
75593;SDS011;64176;49.156;7.810;2024-03-07T08:35:45;16.80;;;10.65;;
75593;SDS011;64176;49.156;7.810;2024-03-07T08:38:29;18.63;;;11.88;;
75593;SDS011;64176;49.156;7.810;2024-03-07T08:41:14;20.80;;;13.90;;
75593;SDS011;64176;49.156;7.810;2024-03-07T08:43:58;16.67;;;11.38;;
75593;SDS011;64176;49.156;7.810;2024-03-07T08:46:46;18.25;;;13.32;;
75593;SDS011;64176;49.156;7.810;2024-03-07T08:49:30;18.17;;;11.23;;
75593;SDS011;64176;49.156;7.810;2024-03-07T08:52:19;17.40;;;11.50;;
75593;SDS011;64176;49.156;7.810;2024-03-07T08:55:06;19.77;;;11.48;;
75593;SDS011;64176;49.156;7.810;2024-03-07T08:57:58;17.67;;;10.35;;
75593;SDS011;64176;49.156;7.810;2024-03-07T09:00:44;17.25;;;11.40;;
75593;SDS011;64176;49.156;7.810;2024-03-07T09:03:29;16.08;;;10.60;;
75593;SDS011;64176;49.156;7.810;2024-03-07T09:06:16;19.02;;;12.52;;
75593;SDS011;64176;49.156;7.810;2024-03-07T09:08:59;20.08;;;10.75;;
75593;SDS011;64176;49.156;7.810;2024-03-07T09:11:43;17.08;;;10.70;;
75593;SDS011;64176;49.156;7.810;2024-03-07T09:14:28;16.52;;;9.90;;
75593;SDS011;64176;49.156;7.810;2024-03-07T09:17:13;16.65;;;10.95;;
75593;SDS011;64176;49.156;7.810;2024-03-07T09:19:59;15.00;;;10.60;;
75593;SDS011;64176;49.156;7.810;2024-03-07T09:22:44;17.65;;;10.65;;
75593;SDS011;64176;49.156;7.810;2024-03-07T09:25:28;18.98;;;11.32;;
75593;SDS011;64176;49.156;7.810;2024-03-07T09:28:16;17.58;;;13.50;;
75593;SDS011;64176;49.156;7.810;2024-03-07T09:31:03;16.75;;;11.43;;
75593;SDS011;64176;49.156;7.810;2024-03-07T09:33:49;19.48;;;10.82;;
75593;SDS011;64176;49.156;7.810;2024-03-07T09:36:33;21.17;;;12.77;;
75593;SDS011;64176;49.156;7.810;2024-03-07T09:39:18;18.50;;;11.50;;
75593;SDS011;64176;49.156;7.810;2024-03-07T09:44:53;16.75;;;10.80;;
75593;SDS011;64176;49.156;7.810;2024-03-07T09:47:38;20.45;;;11.43;;
75593;SDS011;64176;49.156;7.810;2024-03-07T09:50:23;17.30;;;11.60;;
75593;SDS011;64176;49.156;7.810;2024-03-07T09:53:12;21.98;;;12.15;;
75593;SDS011;64176;49.156;7.810;2024-03-07T09:55:57;19.98;;;11.98;;
75593;SDS011;64176;49.156;7.810;2024-03-07T09:58:41;20.08;;;12.30;;
75593;SDS011;64176;49.156;7.810;2024-03-07T10:01:27;18.90;;;11.35;;
75593;SDS011;64176;49.156;7.810;2024-03-07T10:04:15;21.55;;;12.75;;
75593;SDS011;64176;49.156;7.810;2024-03-07T10:07:09;19.13;;;12.13;;
75593;SDS011;64176;49.156;7.810;2024-03-07T10:09:57;20.50;;;11.02;;
75593;SDS011;64176;49.156;7.810;2024-03-07T10:12:43;20.75;;;12.65;;
75593;SDS011;64176;49.156;7.810;2024-03-07T10:15:30;22.05;;;13.13;;
75593;SDS011;64176;49.156;7.810;2024-03-07T10:18:15;19.35;;;11.27;;
75593;SDS011;64176;49.156;7.810;2024-03-07T10:21:02;22.45;;;11.98;;
75593;SDS011;64176;49.156;7.810;2024-03-07T10:23:47;17.38;;;10.77;;
75593;SDS011;64176;49.156;7.810;2024-03-07T10:26:35;24.33;;;12.95;;
75593;SDS011;64176;49.156;7.810;2024-03-07T10:29:22;18.50;;;11.05;;
75593;SDS011;64176;49.156;7.810;2024-03-07T10:32:13;21.17;;;12.20;;
75593;SDS011;64176;49.156;7.810;2024-03-07T10:34:59;22.98;;;13.27;;
75593;SDS011;64176;49.156;7.810;2024-03-07T10:37:43;19.77;;;12.30;;
75593;SDS011;64176;49.156;7.810;2024-03-07T10:40:32;19.63;;;13.90;;
75593;SDS011;64176;49.156;7.810;2024-03-07T10:43:22;24.40;;;13.93;;
75593;SDS011;64176;49.156;7.810;2024-03-07T10:46:06;27.33;;;16.50;;
75593;SDS011;64176;49.156;7.810;2024-03-07T10:48:59;24.92;;;14.65;;
75593;SDS011;64176;49.156;7.810;2024-03-07T10:52:02;22.15;;;12.77;;
75593;SDS011;64176;49.156;7.810;2024-03-07T10:58:09;20.02;;;11.93;;
75593;SDS011;64176;49.156;7.810;2024-03-07T11:00:58;20.15;;;12.55;;
75593;SDS011;64176;49.156;7.810;2024-03-07T11:03:47;24.90;;;12.95;;
75593;SDS011;64176;49.156;7.810;2024-03-07T11:06:35;18.52;;;11.88;;
75593;SDS011;64176;49.156;7.810;2024-03-07T11:09:21;19.63;;;12.30;;
75593;SDS011;64176;49.156;7.810;2024-03-07T11:12:08;20.30;;;11.32;;
75593;SDS011;64176;49.156;7.810;2024-03-07T11:14:55;28.77;;;17.15;;
75593;SDS011;64176;49.156;7.810;2024-03-07T11:17:42;18.25;;;9.98;;
75593;SDS011;64176;49.156;7.810;2024-03-07T11:20:35;18.98;;;12.63;;
75593;SDS011;64176;49.156;7.810;2024-03-07T11:26:14;17.40;;;11.27;;
75593;SDS011;64176;49.156;7.810;2024-03-07T11:28:58;16.73;;;11.77;;
75593;SDS011;64176;49.156;7.810;2024-03-07T11:31:42;26.13;;;13.57;;
75593;SDS011;64176;49.156;7.810;2024-03-07T11:34:29;16.95;;;11.27;;
75593;SDS011;64176;49.156;7.810;2024-03-07T11:37:18;18.27;;;11.05;;
75593;SDS011;64176;49.156;7.810;2024-03-07T11:43:27;22.63;;;14.15;;
75593;SDS011;64176;49.156;7.810;2024-03-07T11:46:13;29.02;;;17.13;;
75593;SDS011;64176;49.156;7.810;2024-03-07T11:49:00;22.20;;;12.43;;
75593;SDS011;64176;49.156;7.810;2024-03-07T11:51:44;18.20;;;11.27;;
75593;SDS011;64176;49.156;7.810;2024-03-07T11:54:28;16.42;;;10.88;;
75593;SDS011;64176;49.156;7.810;2024-03-07T11:57:15;19.23;;;11.82;;
75593;SDS011;64176;49.156;7.810;2024-03-07T12:00:17;19.92;;;11.77;;
75593;SDS011;64176;49.156;7.810;2024-03-07T12:03:02;20.77;;;11.82;;
75593;SDS011;64176;49.156;7.810;2024-03-07T12:05:51;23.77;;;14.55;;
75593;SDS011;64176;49.156;7.810;2024-03-07T12:08:37;26.85;;;15.57;;
75593;SDS011;64176;49.156;7.810;2024-03-07T12:11:27;33.22;;;22.60;;
75593;SDS011;64176;49.156;7.810;2024-03-07T12:14:12;29.50;;;14.82;;
75593;SDS011;64176;49.156;7.810;2024-03-07T12:17:01;29.67;;;19.27;;
75593;SDS011;64176;49.156;7.810;2024-03-07T12:19:48;25.27;;;16.90;;
75593;SDS011;64176;49.156;7.810;2024-03-07T12:22:37;27.02;;;17.35;;
75593;SDS011;64176;49.156;7.810;2024-03-07T12:25:24;21.02;;;13.07;;
75593;SDS011;64176;49.156;7.810;2024-03-07T12:28:14;20.08;;;12.48;;
75593;SDS011;64176;49.156;7.810;2024-03-07T12:31:01;23.63;;;13.93;;
75593;SDS011;64176;49.156;7.810;2024-03-07T12:33:45;22.70;;;13.98;;
75593;SDS011;64176;49.156;7.810;2024-03-07T12:36:35;28.25;;;16.25;;
75593;SDS011;64176;49.156;7.810;2024-03-07T12:39:31;24.60;;;13.75;;
75593;SDS011;64176;49.156;7.810;2024-03-07T12:42:19;24.10;;;14.18;;
75593;SDS011;64176;49.156;7.810;2024-03-07T12:45:03;24.52;;;14.57;;
75593;SDS011;64176;49.156;7.810;2024-03-07T12:47:52;23.30;;;14.10;;
75593;SDS011;64176;49.156;7.810;2024-03-07T12:50:38;25.15;;;14.65;;
75593;SDS011;64176;49.156;7.810;2024-03-07T12:53:26;23.52;;;13.57;;
75593;SDS011;64176;49.156;7.810;2024-03-07T12:56:15;23.95;;;13.52;;
75593;SDS011;64176;49.156;7.810;2024-03-07T12:59:01;22.52;;;13.65;;
75593;SDS011;64176;49.156;7.810;2024-03-07T13:01:48;26.42;;;14.68;;
75593;SDS011;64176;49.156;7.810;2024-03-07T13:04:34;21.70;;;14.23;;
75593;SDS011;64176;49.156;7.810;2024-03-07T13:07:21;24.88;;;14.93;;
75593;SDS011;64176;49.156;7.810;2024-03-07T13:10:05;26.48;;;15.77;;
75593;SDS011;64176;49.156;7.810;2024-03-07T13:12:50;24.20;;;14.48;;
75593;SDS011;64176;49.156;7.810;2024-03-07T13:15:36;24.35;;;15.55;;
75593;SDS011;64176;49.156;7.810;2024-03-07T13:18:25;26.45;;;15.05;;
75593;SDS011;64176;49.156;7.810;2024-03-07T13:21:10;22.80;;;14.75;;
75593;SDS011;64176;49.156;7.810;2024-03-07T13:23:54;22.85;;;14.95;;
75593;SDS011;64176;49.156;7.810;2024-03-07T13:26:41;25.92;;;13.70;;
75593;SDS011;64176;49.156;7.810;2024-03-07T13:29:26;25.73;;;14.60;;
75593;SDS011;64176;49.156;7.810;2024-03-07T13:32:11;26.67;;;15.38;;
75593;SDS011;64176;49.156;7.810;2024-03-07T13:34:58;26.08;;;13.02;;
75593;SDS011;64176;49.156;7.810;2024-03-07T13:37:45;21.45;;;14.63;;
75593;SDS011;64176;49.156;7.810;2024-03-07T13:40:30;20.92;;;12.85;;
75593;SDS011;64176;49.156;7.810;2024-03-07T13:43:15;27.60;;;15.30;;
75593;SDS011;64176;49.156;7.810;2024-03-07T13:45:59;29.55;;;16.27;;
75593;SDS011;64176;49.156;7.810;2024-03-07T13:48:46;25.30;;;15.38;;
75593;SDS011;64176;49.156;7.810;2024-03-07T13:51:30;29.20;;;15.52;;
75593;SDS011;64176;49.156;7.810;2024-03-07T13:54:18;23.63;;;15.00;;
75593;SDS011;64176;49.156;7.810;2024-03-07T14:00:31;25.20;;;14.57;;
75593;SDS011;64176;49.156;7.810;2024-03-07T14:03:38;23.05;;;14.57;;
75593;SDS011;64176;49.156;7.810;2024-03-07T14:06:50;28.23;;;14.77;;
75593;SDS011;64176;49.156;7.810;2024-03-07T14:09:42;26.80;;;15.63;;
75593;SDS011;64176;49.156;7.810;2024-03-07T14:16:50;29.48;;;16.33;;
75593;SDS011;64176;49.156;7.810;2024-03-07T14:26:44;27.92;;;15.23;;
75593;SDS011;64176;49.156;7.810;2024-03-07T14:29:39;25.95;;;18.10;;
75593;SDS011;64176;49.156;7.810;2024-03-07T14:32:27;28.35;;;16.73;;
75593;SDS011;64176;49.156;7.810;2024-03-07T14:38:25;22.80;;;13.45;;
75593;SDS011;64176;49.156;7.810;2024-03-07T14:41:12;29.70;;;17.20;;
75593;SDS011;64176;49.156;7.810;2024-03-07T14:43:59;28.70;;;18.13;;
75593;SDS011;64176;49.156;7.810;2024-03-07T14:46:43;29.10;;;15.77;;
75593;SDS011;64176;49.156;7.810;2024-03-07T14:49:28;23.17;;;14.48;;
75593;SDS011;64176;49.156;7.810;2024-03-07T14:52:15;25.63;;;14.23;;
75593;SDS011;64176;49.156;7.810;2024-03-07T14:55:00;52.40;;;30.25;;
75593;SDS011;64176;49.156;7.810;2024-03-07T14:57:47;32.75;;;19.38;;
75593;SDS011;64176;49.156;7.810;2024-03-07T15:00:31;26.52;;;15.95;;
75593;SDS011;64176;49.156;7.810;2024-03-07T15:03:17;22.45;;;13.90;;
75593;SDS011;64176;49.156;7.810;2024-03-07T15:06:04;24.55;;;14.23;;
75593;SDS011;64176;49.156;7.810;2024-03-07T15:08:48;25.35;;;14.38;;
75593;SDS011;64176;49.156;7.810;2024-03-07T15:11:36;24.42;;;13.85;;
75593;SDS011;64176;49.156;7.810;2024-03-07T15:14:23;25.08;;;13.63;;
75593;SDS011;64176;49.156;7.810;2024-03-07T15:17:07;24.33;;;16.90;;
75593;SDS011;64176;49.156;7.810;2024-03-07T15:19:51;26.42;;;15.10;;
75593;SDS011;64176;49.156;7.810;2024-03-07T15:22:35;33.10;;;18.30;;
75593;SDS011;64176;49.156;7.810;2024-03-07T15:25:20;36.10;;;19.63;;
75593;SDS011;64176;49.156;7.810;2024-03-07T15:28:07;32.42;;;19.83;;
75593;SDS011;64176;49.156;7.810;2024-03-07T15:30:51;33.30;;;21.85;;
75593;SDS011;64176;49.156;7.810;2024-03-07T15:33:36;25.27;;;16.58;;
75593;SDS011;64176;49.156;7.810;2024-03-07T15:36:20;23.27;;;16.15;;
75593;SDS011;64176;49.156;7.810;2024-03-07T15:39:05;19.20;;;13.45;;
75593;SDS011;64176;49.156;7.810;2024-03-07T15:42:03;23.80;;;14.48;;
75593;SDS011;64176;49.156;7.810;2024-03-07T15:44:48;28.88;;;17.10;;
75593;SDS011;64176;49.156;7.810;2024-03-07T15:47:33;25.20;;;16.45;;
75593;SDS011;64176;49.156;7.810;2024-03-07T15:50:17;24.63;;;16.10;;
75593;SDS011;64176;49.156;7.810;2024-03-07T15:53:02;45.20;;;22.52;;
75593;SDS011;64176;49.156;7.810;2024-03-07T15:55:50;22.60;;;13.32;;
75593;SDS011;64176;49.156;7.810;2024-03-07T15:58:34;25.95;;;14.82;;
75593;SDS011;64176;49.156;7.810;2024-03-07T16:01:18;39.28;;;22.95;;
75593;SDS011;64176;49.156;7.810;2024-03-07T16:04:02;38.30;;;21.67;;
75593;SDS011;64176;49.156;7.810;2024-03-07T16:06:54;21.23;;;14.45;;
75593;SDS011;64176;49.156;7.810;2024-03-07T16:09:38;26.05;;;14.85;;
75593;SDS011;64176;49.156;7.810;2024-03-07T16:12:24;23.88;;;15.13;;
75593;SDS011;64176;49.156;7.810;2024-03-07T16:15:08;22.38;;;13.57;;
75593;SDS011;64176;49.156;7.810;2024-03-07T16:17:54;32.60;;;16.00;;
75593;SDS011;64176;49.156;7.810;2024-03-07T16:20:39;28.67;;;13.88;;
75593;SDS011;64176;49.156;7.810;2024-03-07T16:23:24;26.15;;;16.88;;
75593;SDS011;64176;49.156;7.810;2024-03-07T16:26:09;25.38;;;15.02;;
75593;SDS011;64176;49.156;7.810;2024-03-07T16:28:53;22.70;;;16.35;;
75593;SDS011;64176;49.156;7.810;2024-03-07T16:31:36;22.13;;;14.70;;
75593;SDS011;64176;49.156;7.810;2024-03-07T16:34:27;23.70;;;14.35;;
75593;SDS011;64176;49.156;7.810;2024-03-07T16:37:12;22.08;;;13.57;;
75593;SDS011;64176;49.156;7.810;2024-03-07T16:39:58;24.92;;;14.70;;
75593;SDS011;64176;49.156;7.810;2024-03-07T16:42:43;26.52;;;14.10;;
75593;SDS011;64176;49.156;7.810;2024-03-07T16:45:32;25.92;;;13.68;;
75593;SDS011;64176;49.156;7.810;2024-03-07T16:48:16;28.33;;;15.60;;
75593;SDS011;64176;49.156;7.810;2024-03-07T16:51:00;26.83;;;16.55;;
75593;SDS011;64176;49.156;7.810;2024-03-07T16:53:44;27.75;;;17.67;;
75593;SDS011;64176;49.156;7.810;2024-03-07T16:56:28;24.92;;;14.55;;